createdAt,value
2016-09-27T00:00:36.338Z,1017.98
2016-09-27T00:01:16.880Z,1017.96
2016-09-27T00:01:57.421Z,1017.98
2016-09-27T00:02:37.966Z,1018.01
2016-09-27T00:03:18.513Z,1017.98
2016-09-27T00:03:59.061Z,1018
2016-09-27T00:04:39.602Z,1018.03
2016-09-27T00:05:20.152Z,1018.04
2016-09-27T00:06:00.700Z,1018.03
2016-09-27T00:06:41.245Z,1018.02
2016-09-27T00:07:21.782Z,1018.05
2016-09-27T00:08:02.328Z,1018.11
2016-09-27T00:08:42.868Z,1018.11
2016-09-27T00:09:23.431Z,1018.09
2016-09-27T00:10:03.971Z,1018.11
2016-09-27T00:10:44.512Z,1018.12
2016-09-27T00:11:25.065Z,1018.11
2016-09-27T00:12:05.587Z,1018.12
2016-09-27T00:12:46.138Z,1018.09
2016-09-27T00:13:26.683Z,1018.09
2016-09-27T00:14:07.222Z,1018.07
2016-09-27T00:14:47.753Z,1018.08
2016-09-27T00:15:28.300Z,1018.12
2016-09-27T00:16:08.842Z,1018.12
2016-09-27T00:16:49.384Z,1018.1
2016-09-27T00:17:29.929Z,1018.12
2016-09-27T00:18:10.474Z,1018.13
2016-09-27T00:18:51.011Z,1018.15
2016-09-27T00:19:31.557Z,1018.17
2016-09-27T00:20:12.095Z,1018.15
2016-09-27T00:20:52.641Z,1018.15
2016-09-27T00:21:33.188Z,1018.11
2016-09-27T00:22:13.732Z,1018.12
2016-09-27T00:22:54.281Z,1018.08
2016-09-27T00:23:34.822Z,1018.07
2016-09-27T00:24:15.372Z,1018.07
2016-09-27T00:24:55.905Z,1018.07
2016-09-27T00:25:36.448Z,1018.04
2016-09-27T00:26:16.985Z,1018.03
2016-09-27T00:26:57.532Z,1018.04
2016-09-27T00:27:38.082Z,1018.03
2016-09-27T00:28:18.614Z,1018.02
2016-09-27T00:28:59.155Z,1018.05
2016-09-27T00:29:39.774Z,1018.04
2016-09-27T00:30:20.294Z,1018.04
2016-09-27T00:31:00.890Z,1018.02
2016-09-27T00:31:41.427Z,1018.02
2016-09-27T00:32:21.982Z,1018.02
2016-09-27T00:33:02.532Z,1018.07
2016-09-27T00:33:43.073Z,1018.09
2016-09-27T00:34:23.613Z,1018.03
2016-09-27T00:35:04.160Z,1018.04
2016-09-27T00:35:44.697Z,1018.03
2016-09-27T00:36:25.237Z,1018.06
2016-09-27T00:37:05.775Z,1018.03
2016-09-27T00:37:46.326Z,1018.05
2016-09-27T00:38:26.869Z,1018.06
2016-09-27T00:39:07.412Z,1018.06
2016-09-27T00:39:47.978Z,1018.04
2016-09-27T00:40:28.522Z,1018.05
2016-09-27T00:41:09.066Z,1018.05
2016-09-27T00:41:49.613Z,1018.03
2016-09-27T00:42:30.186Z,1018.05
2016-09-27T00:43:10.718Z,1018.07
2016-09-27T00:43:51.262Z,1018.06
2016-09-27T00:44:31.848Z,1018.09
2016-09-27T00:45:12.392Z,1018.14
2016-09-27T00:45:52.934Z,1018.14
2016-09-27T00:46:33.484Z,1018.14
2016-09-27T00:47:14.017Z,1018.17
2016-09-27T00:47:54.565Z,1018.19
2016-09-27T00:48:35.108Z,1018.14
2016-09-27T00:49:15.654Z,1018.17
2016-09-27T00:49:56.199Z,1018.19
2016-09-27T00:50:36.748Z,1018.16
2016-09-27T00:51:17.292Z,1018.15
2016-09-27T00:51:57.869Z,1018.17
2016-09-27T00:52:38.429Z,1018.16
2016-09-27T00:53:18.969Z,1018.19
2016-09-27T00:53:59.523Z,1018.14
2016-09-27T00:54:40.072Z,1018.15
2016-09-27T00:55:20.609Z,1018.17
2016-09-27T00:56:01.152Z,1018.2
2016-09-27T00:56:41.696Z,1018.21
2016-09-27T00:57:22.233Z,1018.21
2016-09-27T00:58:02.773Z,1018.17
2016-09-27T00:58:43.318Z,1018.21
2016-09-27T00:59:23.895Z,1018.25
2016-09-27T01:00:04.463Z,1018.29
2016-09-27T01:00:45.011Z,1018.26
2016-09-27T01:01:25.559Z,1018.26
2016-09-27T01:02:06.118Z,1018.3
2016-09-27T01:02:46.677Z,1018.32
2016-09-27T01:03:27.218Z,1018.27
2016-09-27T01:04:07.764Z,1018.29
2016-09-27T01:04:48.320Z,1018.34
2016-09-27T01:05:28.870Z,1018.32
2016-09-27T01:06:09.438Z,1018.3
2016-09-27T01:06:49.990Z,1018.31
2016-09-27T01:07:30.536Z,1018.34
2016-09-27T01:08:11.080Z,1018.34
2016-09-27T01:08:51.627Z,1018.32
2016-09-27T01:09:32.171Z,1018.28
2016-09-27T01:10:12.721Z,1018.29
2016-09-27T01:10:53.377Z,1018.31
2016-09-27T01:11:33.929Z,1018.31
2016-09-27T01:12:14.476Z,1018.3
2016-09-27T01:12:55.033Z,1018.29
2016-09-27T01:13:35.577Z,1018.28
2016-09-27T01:14:16.122Z,1018.3
2016-09-27T01:14:56.679Z,1018.29
2016-09-27T01:15:37.230Z,1018.33
2016-09-27T01:16:17.778Z,1018.32
2016-09-27T01:16:58.321Z,1018.33
2016-09-27T01:17:38.894Z,1018.31
2016-09-27T01:18:19.442Z,1018.32
2016-09-27T01:18:59.985Z,1018.31
2016-09-27T01:19:40.537Z,1018.33
2016-09-27T01:20:21.085Z,1018.39
2016-09-27T01:21:01.628Z,1018.38
2016-09-27T01:21:42.170Z,1018.4
2016-09-27T01:22:22.712Z,1018.42
2016-09-27T01:23:03.255Z,1018.39
2016-09-27T01:23:43.815Z,1018.4
2016-09-27T01:24:24.353Z,1018.41
2016-09-27T01:25:04.884Z,1018.42
2016-09-27T01:25:45.421Z,1018.4
2016-09-27T01:26:25.963Z,1018.43
2016-09-27T01:27:06.514Z,1018.5
2016-09-27T01:27:47.060Z,1018.44
2016-09-27T01:28:27.606Z,1018.49
2016-09-27T01:29:08.165Z,1018.47
2016-09-27T01:29:48.703Z,1018.46
2016-09-27T01:30:29.268Z,1018.46
2016-09-27T01:31:09.811Z,1018.44
2016-09-27T01:31:50.363Z,1018.45
2016-09-27T01:32:30.904Z,1018.44
2016-09-27T01:33:11.459Z,1018.46
2016-09-27T01:33:52.005Z,1018.43
2016-09-27T01:34:32.550Z,1018.42
2016-09-27T01:35:13.101Z,1018.49
2016-09-27T01:35:53.652Z,1018.49
2016-09-27T01:36:34.209Z,1018.46
2016-09-27T01:37:14.756Z,1018.48
2016-09-27T01:37:55.309Z,1018.46
2016-09-27T01:38:35.854Z,1018.51
2016-09-27T01:39:16.390Z,1018.51
2016-09-27T01:39:56.931Z,1018.48
2016-09-27T01:40:37.470Z,1018.51
2016-09-27T01:41:18.010Z,1018.48
2016-09-27T01:41:58.550Z,1018.44
2016-09-27T01:42:39.089Z,1018.51
2016-09-27T01:43:19.637Z,1018.5
2016-09-27T01:44:00.175Z,1018.52
2016-09-27T01:44:40.724Z,1018.49
2016-09-27T01:45:21.272Z,1018.52
2016-09-27T01:46:01.829Z,1018.53
2016-09-27T01:46:42.377Z,1018.52
2016-09-27T01:47:22.919Z,1018.51
2016-09-27T01:48:03.464Z,1018.54
2016-09-27T01:48:44.005Z,1018.53
2016-09-27T01:49:24.532Z,1018.54
2016-09-27T01:50:05.102Z,1018.56
2016-09-27T01:50:45.634Z,1018.54
2016-09-27T01:51:26.178Z,1018.52
2016-09-27T01:52:06.720Z,1018.51
2016-09-27T01:52:47.265Z,1018.51
2016-09-27T01:53:27.819Z,1018.54
2016-09-27T01:54:08.357Z,1018.56
2016-09-27T01:54:48.899Z,1018.56
2016-09-27T01:55:29.450Z,1018.54
2016-09-27T01:56:09.979Z,1018.57
2016-09-27T01:56:50.524Z,1018.6
2016-09-27T01:57:31.068Z,1018.61
2016-09-27T01:58:11.606Z,1018.64
2016-09-27T01:58:52.162Z,1018.64
2016-09-27T01:59:32.695Z,1018.65
2016-09-27T02:00:13.244Z,1018.63
2016-09-27T02:00:53.839Z,1018.66
2016-09-27T02:01:34.332Z,1018.65
2016-09-27T02:02:14.873Z,1018.68
2016-09-27T02:02:55.451Z,1018.66
2016-09-27T02:03:35.994Z,1018.66
2016-09-27T02:04:16.547Z,1018.69
2016-09-27T02:04:57.084Z,1018.66
2016-09-27T02:05:37.626Z,1018.67
2016-09-27T02:06:18.164Z,1018.65
2016-09-27T02:06:58.716Z,1018.65
2016-09-27T02:07:39.261Z,1018.67
2016-09-27T02:08:19.840Z,1018.67
2016-09-27T02:09:00.361Z,1018.69
2016-09-27T02:09:40.951Z,1018.67
2016-09-27T02:10:21.504Z,1018.69
2016-09-27T02:11:02.081Z,1018.64
2016-09-27T02:11:42.640Z,1018.72
2016-09-27T02:12:23.181Z,1018.71
2016-09-27T02:13:03.722Z,1018.7
2016-09-27T02:13:44.263Z,1018.71
2016-09-27T02:14:25.714Z,1018.74
2016-09-27T02:15:06.250Z,1018.76
2016-09-27T02:15:46.793Z,1018.76
2016-09-27T02:16:27.343Z,1018.76
2016-09-27T02:17:07.888Z,1018.75
2016-09-27T02:17:48.435Z,1018.77
2016-09-27T02:18:28.980Z,1018.79
2016-09-27T02:19:09.529Z,1018.79
2016-09-27T02:19:50.072Z,1018.79
2016-09-27T02:20:30.615Z,1018.79
2016-09-27T02:21:11.153Z,1018.74
2016-09-27T02:21:51.721Z,1018.76
2016-09-27T02:22:32.273Z,1018.79
2016-09-27T02:23:12.817Z,1018.76
2016-09-27T02:23:53.354Z,1018.75
2016-09-27T02:24:33.891Z,1018.72
2016-09-27T02:25:14.421Z,1018.73
2016-09-27T02:25:54.970Z,1018.75
2016-09-27T02:26:35.511Z,1018.72
2016-09-27T02:27:16.057Z,1018.72
2016-09-27T02:27:56.601Z,1018.71
2016-09-27T02:28:37.158Z,1018.71
2016-09-27T02:29:17.705Z,1018.69
2016-09-27T02:29:58.252Z,1018.71
2016-09-27T02:30:38.795Z,1018.72
2016-09-27T02:31:19.344Z,1018.67
2016-09-27T02:31:59.900Z,1018.72
2016-09-27T02:32:40.437Z,1018.65
2016-09-27T02:33:20.983Z,1018.7
2016-09-27T02:34:01.528Z,1018.71
2016-09-27T02:34:42.068Z,1018.73
2016-09-27T02:35:22.610Z,1018.7
2016-09-27T02:36:03.149Z,1018.74
2016-09-27T02:36:43.691Z,1018.72
2016-09-27T02:37:24.232Z,1018.74
2016-09-27T02:38:04.781Z,1018.7
2016-09-27T02:38:45.326Z,1018.77
2016-09-27T02:39:25.867Z,1018.77
2016-09-27T02:40:06.415Z,1018.77
2016-09-27T02:40:46.960Z,1018.78
2016-09-27T02:41:27.519Z,1018.8
2016-09-27T02:42:08.072Z,1018.79
2016-09-27T02:42:48.619Z,1018.79
2016-09-27T02:43:29.165Z,1018.82
2016-09-27T02:44:09.706Z,1018.81
2016-09-27T02:44:50.255Z,1018.82
2016-09-27T02:45:30.798Z,1018.8
2016-09-27T02:46:11.347Z,1018.79
2016-09-27T02:46:51.890Z,1018.79
2016-09-27T02:47:32.432Z,1018.73
2016-09-27T02:48:12.974Z,1018.73
2016-09-27T02:48:53.514Z,1018.74
2016-09-27T02:49:34.059Z,1018.74
2016-09-27T02:50:14.600Z,1018.71
2016-09-27T02:50:55.149Z,1018.74
2016-09-27T02:51:35.687Z,1018.74
2016-09-27T02:52:16.231Z,1018.72
2016-09-27T02:52:56.780Z,1018.73
2016-09-27T02:53:37.319Z,1018.72
2016-09-27T02:54:17.869Z,1018.7
2016-09-27T02:54:58.410Z,1018.74
2016-09-27T02:55:38.956Z,1018.72
2016-09-27T02:56:19.492Z,1018.72
2016-09-27T02:57:00.039Z,1018.72
2016-09-27T02:57:40.575Z,1018.73
2016-09-27T02:58:21.124Z,1018.72
2016-09-27T02:59:01.673Z,1018.7
2016-09-27T02:59:42.211Z,1018.73
2016-09-27T03:00:22.763Z,1018.73
2016-09-27T03:01:03.303Z,1018.74
2016-09-27T03:01:43.840Z,1018.73
2016-09-27T03:02:24.390Z,1018.69
2016-09-27T03:03:04.943Z,1018.7
2016-09-27T03:03:45.494Z,1018.7
2016-09-27T03:04:26.053Z,1018.69
2016-09-27T03:05:06.589Z,1018.69
2016-09-27T03:05:47.136Z,1018.66
2016-09-27T03:06:27.684Z,1018.69
2016-09-27T03:07:08.233Z,1018.71
2016-09-27T03:07:48.785Z,1018.66
2016-09-27T03:08:29.333Z,1018.73
2016-09-27T03:09:09.881Z,1018.7
2016-09-27T03:09:50.416Z,1018.74
2016-09-27T03:10:30.953Z,1018.72
2016-09-27T03:11:11.489Z,1018.74
2016-09-27T03:11:52.039Z,1018.74
2016-09-27T03:12:32.613Z,1018.75
2016-09-27T03:13:13.157Z,1018.75
2016-09-27T03:13:53.696Z,1018.78
2016-09-27T03:14:34.243Z,1018.79
2016-09-27T03:15:14.783Z,1018.85
2016-09-27T03:15:55.327Z,1018.83
2016-09-27T03:16:35.869Z,1018.84
2016-09-27T03:17:16.409Z,1018.85
2016-09-27T03:17:56.961Z,1018.91
2016-09-27T03:18:37.509Z,1018.96
2016-09-27T03:19:18.060Z,1018.98
2016-09-27T03:19:58.611Z,1019
2016-09-27T03:20:39.153Z,1019.02
2016-09-27T03:21:19.702Z,1019.02
2016-09-27T03:22:00.251Z,1019.06
2016-09-27T03:22:40.792Z,1019.05
2016-09-27T03:23:21.339Z,1019.06
2016-09-27T03:24:01.890Z,1019.09
2016-09-27T03:24:42.431Z,1019.06
2016-09-27T03:25:22.972Z,1019.07
2016-09-27T03:26:03.511Z,1019.07
2016-09-27T03:26:44.051Z,1019.06
2016-09-27T03:27:24.594Z,1019.09
2016-09-27T03:28:05.138Z,1019.09
2016-09-27T03:28:45.689Z,1019.11
2016-09-27T03:29:26.254Z,1019.11
2016-09-27T03:30:06.775Z,1019.14
2016-09-27T03:30:47.326Z,1019.09
2016-09-27T03:31:27.867Z,1019.15
2016-09-27T03:32:08.412Z,1019.14
2016-09-27T03:32:48.954Z,1019.18
2016-09-27T03:33:29.502Z,1019.17
2016-09-27T03:34:10.051Z,1019.15
2016-09-27T03:34:50.585Z,1019.16
2016-09-27T03:35:31.131Z,1019.2
2016-09-27T03:36:11.668Z,1019.2
2016-09-27T03:36:52.205Z,1019.21
2016-09-27T03:37:32.752Z,1019.22
2016-09-27T03:38:13.292Z,1019.2
2016-09-27T03:38:53.836Z,1019.18
2016-09-27T03:39:34.407Z,1019.2
2016-09-27T03:41:53.750Z,1019.12
2016-09-27T03:42:34.302Z,1019.11
2016-09-27T03:43:14.841Z,1019.1
2016-09-27T03:43:55.391Z,1019.08
2016-09-27T03:44:35.937Z,1019.06
2016-09-27T03:45:16.482Z,1019.1
2016-09-27T03:45:57.017Z,1019.07
2016-09-27T03:46:37.562Z,1019.05
2016-09-27T03:47:18.095Z,1019.05
2016-09-27T03:47:58.627Z,1019.06
2016-09-27T03:48:39.163Z,1019.03
2016-09-27T03:49:19.707Z,1019
2016-09-27T03:50:00.263Z,1019.01
2016-09-27T03:50:40.803Z,1019
2016-09-27T03:51:21.348Z,1019
2016-09-27T03:52:01.892Z,1018.97
2016-09-27T03:52:42.439Z,1019.02
2016-09-27T03:53:22.983Z,1019.04
2016-09-27T03:54:03.508Z,1019.01
2016-09-27T03:54:44.053Z,1018.99
2016-09-27T03:55:24.596Z,1018.99
2016-09-27T03:56:05.127Z,1019.03
2016-09-27T03:56:45.668Z,1019.02
2016-09-27T03:57:26.224Z,1019.01
2016-09-27T03:58:06.768Z,1018.99
2016-09-27T03:58:47.309Z,1019.06
2016-09-27T03:59:27.856Z,1019.01
2016-09-27T04:00:08.408Z,1019.07
2016-09-27T04:00:48.946Z,1019.07
2016-09-27T04:01:29.499Z,1019.05
2016-09-27T04:02:10.035Z,1019.02
2016-09-27T04:02:50.580Z,1019.04
2016-09-27T04:03:31.114Z,1019.05
2016-09-27T04:04:11.642Z,1019.08
2016-09-27T04:04:52.200Z,1019.11
2016-09-27T04:05:32.730Z,1019.09
2016-09-27T04:06:13.278Z,1019.11
2016-09-27T04:06:53.812Z,1019.14
2016-09-27T04:07:34.333Z,1019.14
2016-09-27T04:08:14.868Z,1019.16
2016-09-27T04:08:55.400Z,1019.16
2016-09-27T04:09:35.948Z,1019.16
2016-09-27T04:10:16.488Z,1019.17
2016-09-27T04:10:57.029Z,1019.19
2016-09-27T04:11:37.560Z,1019.22
2016-09-27T04:12:18.108Z,1019.21
2016-09-27T04:12:58.656Z,1019.17
2016-09-27T04:13:39.201Z,1019.15
2016-09-27T04:14:19.749Z,1019.16
2016-09-27T04:15:00.281Z,1019.17
2016-09-27T04:15:40.813Z,1019.11
2016-09-27T04:16:21.355Z,1019.15
2016-09-27T04:17:01.887Z,1019.08
2016-09-27T04:17:42.435Z,1019.11
2016-09-27T04:18:22.985Z,1019.09
2016-09-27T04:19:03.516Z,1019.12
2016-09-27T04:19:44.060Z,1019.08
2016-09-27T04:20:24.601Z,1019.08
2016-09-27T04:21:05.142Z,1019.09
2016-09-27T04:21:45.683Z,1019.13
2016-09-27T04:22:26.284Z,1019.09
2016-09-27T04:23:07.408Z,1019.09
2016-09-27T04:23:48.594Z,1019.08
2016-09-27T04:24:29.690Z,1019.1
2016-09-27T04:25:10.238Z,1019.08
2016-09-27T04:25:50.793Z,1019.11
2016-09-27T04:26:31.339Z,1019.1
2016-09-27T04:27:11.880Z,1019.08
2016-09-27T04:27:52.422Z,1019.14
2016-09-27T04:28:32.949Z,1019.13
2016-09-27T04:29:13.486Z,1019.15
2016-09-27T04:29:54.032Z,1019.2
2016-09-27T04:30:34.560Z,1019.17
2016-09-27T04:31:15.104Z,1019.18
2016-09-27T04:31:55.786Z,1019.21
2016-09-27T04:32:36.558Z,1019.17
2016-09-27T04:33:17.252Z,1019.25
2016-09-27T04:33:57.819Z,1019.22
2016-09-27T04:34:38.403Z,1019.22
2016-09-27T04:35:18.969Z,1019.24
2016-09-27T04:35:59.443Z,1019.27
2016-09-27T04:36:40.146Z,1019.26
2016-09-27T04:37:20.697Z,1019.28
2016-09-27T04:38:01.289Z,1019.3
2016-09-27T04:38:41.860Z,1019.34
2016-09-27T04:39:22.397Z,1019.33
2016-09-27T04:40:02.910Z,1019.3
2016-09-27T04:40:43.452Z,1019.36
2016-09-27T04:41:23.989Z,1019.41
2016-09-27T04:42:04.529Z,1019.38
2016-09-27T04:42:45.069Z,1019.44
2016-09-27T04:43:25.612Z,1019.46
2016-09-27T04:44:06.156Z,1019.43
2016-09-27T04:44:46.700Z,1019.46
2016-09-27T04:45:27.248Z,1019.47
2016-09-27T04:46:07.828Z,1019.44
2016-09-27T04:46:48.373Z,1019.46
2016-09-27T04:47:28.921Z,1019.46
2016-09-27T04:48:09.458Z,1019.46
2016-09-27T04:48:50.017Z,1019.46
2016-09-27T04:49:30.557Z,1019.45
2016-09-27T04:50:11.093Z,1019.43
2016-09-27T04:50:51.631Z,1019.46
2016-09-27T04:51:32.163Z,1019.46
2016-09-27T04:52:12.708Z,1019.48
2016-09-27T04:52:53.250Z,1019.48
2016-09-27T04:53:33.807Z,1019.46
2016-09-27T04:54:14.338Z,1019.46
2016-09-27T04:54:54.961Z,1019.49
2016-09-27T04:55:35.493Z,1019.53
2016-09-27T04:56:16.029Z,1019.51
2016-09-27T04:56:56.574Z,1019.59
2016-09-27T04:57:37.107Z,1019.55
2016-09-27T04:58:17.650Z,1019.57
2016-09-27T04:58:58.192Z,1019.61
2016-09-27T04:59:38.736Z,1019.63
2016-09-27T05:00:19.283Z,1019.61
2016-09-27T05:00:59.821Z,1019.61
2016-09-27T05:01:40.374Z,1019.67
2016-09-27T05:02:20.919Z,1019.66
2016-09-27T05:03:01.468Z,1019.67
2016-09-27T05:03:42.009Z,1019.68
2016-09-27T05:04:22.563Z,1019.65
2016-09-27T05:05:03.115Z,1019.67
2016-09-27T05:05:43.652Z,1019.64
2016-09-27T05:06:24.194Z,1019.65
2016-09-27T05:07:04.736Z,1019.68
2016-09-27T05:07:45.273Z,1019.68
2016-09-27T05:08:25.817Z,1019.69
2016-09-27T05:09:06.379Z,1019.72
2016-09-27T05:09:46.917Z,1019.71
2016-09-27T05:10:27.457Z,1019.7
2016-09-27T05:11:08.002Z,1019.71
2016-09-27T05:11:48.545Z,1019.72
2016-09-27T05:12:29.102Z,1019.7
2016-09-27T05:13:09.646Z,1019.7
2016-09-27T05:13:50.192Z,1019.67
2016-09-27T05:14:30.755Z,1019.71
2016-09-27T05:15:11.299Z,1019.69
2016-09-27T05:15:51.838Z,1019.74
2016-09-27T05:16:32.383Z,1019.71
2016-09-27T05:17:12.913Z,1019.7
2016-09-27T05:17:53.450Z,1019.72
2016-09-27T05:18:33.978Z,1019.7
2016-09-27T05:19:14.517Z,1019.72
2016-09-27T05:19:55.064Z,1019.69
2016-09-27T05:20:35.612Z,1019.69
2016-09-27T05:21:16.144Z,1019.7
2016-09-27T05:21:56.682Z,1019.66
2016-09-27T05:22:37.238Z,1019.66
2016-09-27T05:23:17.771Z,1019.67
2016-09-27T05:23:58.308Z,1019.64
2016-09-27T05:24:38.840Z,1019.63
2016-09-27T05:25:19.395Z,1019.62
2016-09-27T05:25:59.910Z,1019.64
2016-09-27T05:26:40.451Z,1019.65
2016-09-27T05:27:20.995Z,1019.68
2016-09-27T05:28:01.540Z,1019.68
2016-09-27T05:28:42.084Z,1019.67
2016-09-27T05:29:22.614Z,1019.69
2016-09-27T05:30:03.144Z,1019.68
2016-09-27T05:30:43.690Z,1019.67
2016-09-27T05:31:24.269Z,1019.67
2016-09-27T05:32:04.815Z,1019.64
2016-09-27T05:32:45.354Z,1019.65
2016-09-27T05:33:25.893Z,1019.7
2016-09-27T05:34:06.424Z,1019.68
2016-09-27T05:34:46.976Z,1019.65
2016-09-27T05:35:27.538Z,1019.69
2016-09-27T05:36:08.082Z,1019.67
2016-09-27T05:36:48.633Z,1019.71
2016-09-27T05:37:29.183Z,1019.68
2016-09-27T05:38:09.735Z,1019.71
2016-09-27T05:38:50.278Z,1019.65
2016-09-27T05:39:30.835Z,1019.64
2016-09-27T05:40:11.363Z,1019.64
2016-09-27T05:40:51.917Z,1019.64
2016-09-27T05:41:32.461Z,1019.64
2016-09-27T05:42:13.010Z,1019.64
2016-09-27T05:42:53.555Z,1019.66
2016-09-27T05:43:34.102Z,1019.66
2016-09-27T05:44:14.646Z,1019.66
2016-09-27T05:44:55.207Z,1019.68
2016-09-27T05:45:35.757Z,1019.67
2016-09-27T05:46:16.287Z,1019.68
2016-09-27T05:46:56.825Z,1019.68
2016-09-27T05:47:37.366Z,1019.7
2016-09-27T05:48:17.910Z,1019.69
2016-09-27T05:48:58.453Z,1019.67
2016-09-27T05:49:39.017Z,1019.67
2016-09-27T05:50:19.543Z,1019.67
2016-09-27T05:51:00.085Z,1019.68
2016-09-27T05:51:40.625Z,1019.69
2016-09-27T05:52:21.170Z,1019.73
2016-09-27T05:53:01.700Z,1019.69
2016-09-27T05:53:42.229Z,1019.7
2016-09-27T05:54:22.765Z,1019.73
2016-09-27T05:55:03.308Z,1019.73
2016-09-27T05:55:43.851Z,1019.74
2016-09-27T05:56:24.398Z,1019.7
2016-09-27T05:57:04.940Z,1019.71
2016-09-27T05:57:45.509Z,1019.77
2016-09-27T05:58:26.055Z,1019.71
2016-09-27T05:59:06.602Z,1019.74
2016-09-27T05:59:47.143Z,1019.72
2016-09-27T06:00:27.682Z,1019.74
2016-09-27T06:01:08.230Z,1019.76
2016-09-27T06:01:48.772Z,1019.79
2016-09-27T06:02:29.319Z,1019.81
2016-09-27T06:03:09.849Z,1019.82
2016-09-27T06:03:50.378Z,1019.82
2016-09-27T06:04:30.916Z,1019.81
2016-09-27T06:05:11.460Z,1019.83
2016-09-27T06:05:52.016Z,1019.85
2016-09-27T06:06:32.562Z,1019.83
2016-09-27T06:07:13.108Z,1019.87
2016-09-27T06:07:53.651Z,1019.84
2016-09-27T06:08:34.196Z,1019.85
2016-09-27T06:09:14.745Z,1019.86
2016-09-27T06:09:55.289Z,1019.85
2016-09-27T06:10:35.875Z,1019.86
2016-09-27T06:11:16.415Z,1019.85
2016-09-27T06:11:56.951Z,1019.86
2016-09-27T06:12:37.492Z,1019.87
2016-09-27T06:13:18.034Z,1019.87
2016-09-27T06:13:58.569Z,1019.86
2016-09-27T06:14:39.109Z,1019.87
2016-09-27T06:15:19.673Z,1019.89
2016-09-27T06:16:00.190Z,1019.91
2016-09-27T06:16:40.744Z,1019.93
2016-09-27T06:17:21.292Z,1019.9
2016-09-27T06:18:01.851Z,1019.95
2016-09-27T06:18:42.377Z,1019.96
2016-09-27T06:19:22.921Z,1020.02
2016-09-27T06:20:03.466Z,1020.01
2016-09-27T06:20:44.015Z,1020.03
2016-09-27T06:21:24.560Z,1020.04
2016-09-27T06:22:05.105Z,1020.06
2016-09-27T06:22:45.653Z,1020.09
2016-09-27T06:23:26.199Z,1020.08
2016-09-27T06:24:06.728Z,1020.08
2016-09-27T06:24:47.266Z,1020.14
2016-09-27T06:25:27.805Z,1020.09
2016-09-27T06:26:08.350Z,1020.08
2016-09-27T06:26:48.899Z,1020.14
2016-09-27T06:27:29.433Z,1020.14
2016-09-27T06:28:09.984Z,1020.15
2016-09-27T06:28:50.532Z,1020.19
2016-09-27T06:29:31.088Z,1020.19
2016-09-27T06:30:11.634Z,1020.24
2016-09-27T06:30:52.173Z,1020.23
2016-09-27T06:31:32.711Z,1020.26
2016-09-27T06:32:13.259Z,1020.26
2016-09-27T06:32:53.802Z,1020.29
2016-09-27T06:33:34.344Z,1020.3
2016-09-27T06:34:14.885Z,1020.3
2016-09-27T06:34:55.424Z,1020.27
2016-09-27T06:35:35.956Z,1020.3
2016-09-27T06:36:16.505Z,1020.24
2016-09-27T06:36:57.045Z,1020.25
2016-09-27T06:37:37.589Z,1020.25
2016-09-27T06:38:18.138Z,1020.23
2016-09-27T06:38:58.680Z,1020.25
2016-09-27T06:39:39.230Z,1020.27
2016-09-27T06:40:19.782Z,1020.28
2016-09-27T06:41:00.326Z,1020.31
2016-09-27T06:41:40.871Z,1020.3
2016-09-27T06:42:21.419Z,1020.3
2016-09-27T06:43:01.956Z,1020.34
2016-09-27T06:43:42.499Z,1020.36
2016-09-27T06:44:23.042Z,1020.35
2016-09-27T06:45:03.585Z,1020.37
2016-09-27T06:45:44.131Z,1020.39
2016-09-27T06:46:24.677Z,1020.44
2016-09-27T06:47:05.216Z,1020.42
2016-09-27T06:47:45.766Z,1020.44
2016-09-27T06:48:26.303Z,1020.46
2016-09-27T06:49:06.850Z,1020.5
2016-09-27T06:49:47.397Z,1020.51
2016-09-27T06:50:27.934Z,1020.54
2016-09-27T06:51:08.497Z,1020.54
2016-09-27T06:51:49.025Z,1020.54
2016-09-27T06:52:29.577Z,1020.55
2016-09-27T06:53:10.128Z,1020.6
2016-09-27T06:53:50.672Z,1020.59
2016-09-27T06:54:31.210Z,1020.53
2016-09-27T06:55:11.744Z,1020.55
2016-09-27T06:55:52.289Z,1020.56
2016-09-27T06:56:32.829Z,1020.6
2016-09-27T06:57:13.374Z,1020.57
2016-09-27T06:57:53.918Z,1020.57
2016-09-27T06:58:34.463Z,1020.59
2016-09-27T06:59:15.009Z,1020.58
2016-09-27T06:59:55.559Z,1020.55
2016-09-27T07:00:36.103Z,1020.56
2016-09-27T07:01:16.651Z,1020.55
2016-09-27T07:01:57.193Z,1020.58
2016-09-27T07:02:37.740Z,1020.57
2016-09-27T07:03:18.288Z,1020.57
2016-09-27T07:03:58.837Z,1020.56
2016-09-27T07:04:39.383Z,1020.54
2016-09-27T07:05:19.940Z,1020.59
2016-09-27T07:06:00.486Z,1020.56
2016-09-27T07:06:41.035Z,1020.6
2016-09-27T07:07:21.584Z,1020.58
2016-09-27T07:08:02.115Z,1020.58
2016-09-27T07:08:42.662Z,1020.55
2016-09-27T07:09:23.196Z,1020.53
2016-09-27T07:10:03.737Z,1020.57
2016-09-27T07:10:44.290Z,1020.56
2016-09-27T07:11:24.827Z,1020.55
2016-09-27T07:12:05.376Z,1020.59
2016-09-27T07:12:45.921Z,1020.58
2016-09-27T07:13:26.466Z,1020.6
2016-09-27T07:14:07.002Z,1020.62
2016-09-27T07:14:47.550Z,1020.58
2016-09-27T07:15:28.101Z,1020.61
2016-09-27T07:16:08.646Z,1020.62
2016-09-27T07:16:49.191Z,1020.63
2016-09-27T07:17:29.726Z,1020.65
2016-09-27T07:18:10.272Z,1020.64
2016-09-27T07:18:50.819Z,1020.64
2016-09-27T07:19:31.364Z,1020.67
2016-09-27T07:20:11.903Z,1020.63
2016-09-27T07:20:52.449Z,1020.64
2016-09-27T07:21:32.991Z,1020.6
2016-09-27T07:22:13.537Z,1020.63
2016-09-27T07:22:54.082Z,1020.61
2016-09-27T07:23:34.634Z,1020.59
2016-09-27T07:24:15.183Z,1020.57
2016-09-27T07:24:55.734Z,1020.59
2016-09-27T07:25:36.277Z,1020.56
2016-09-27T07:26:16.814Z,1020.61
2016-09-27T07:26:57.363Z,1020.6
2016-09-27T07:27:37.913Z,1020.62
2016-09-27T07:28:18.455Z,1020.63
2016-09-27T07:28:58.998Z,1020.67
2016-09-27T07:29:39.536Z,1020.69
2016-09-27T07:30:20.083Z,1020.68
2016-09-27T07:31:00.615Z,1020.69
2016-09-27T07:31:41.160Z,1020.71
2016-09-27T07:32:21.704Z,1020.72
2016-09-27T07:33:02.248Z,1020.73
2016-09-27T07:33:42.798Z,1020.7
2016-09-27T07:34:23.339Z,1020.73
2016-09-27T07:35:03.877Z,1020.72
2016-09-27T07:35:44.424Z,1020.75
2016-09-27T07:36:24.972Z,1020.74
2016-09-27T07:37:05.517Z,1020.75
2016-09-27T07:37:46.055Z,1020.74
2016-09-27T07:38:26.594Z,1020.74
2016-09-27T07:39:07.136Z,1020.73
2016-09-27T07:39:47.674Z,1020.71
2016-09-27T07:40:28.220Z,1020.73
2016-09-27T07:41:08.764Z,1020.71
2016-09-27T07:41:49.308Z,1020.69
2016-09-27T07:42:29.855Z,1020.71
2016-09-27T07:43:10.405Z,1020.73
2016-09-27T07:43:50.953Z,1020.73
2016-09-27T07:44:31.494Z,1020.7
2016-09-27T07:45:12.038Z,1020.75
2016-09-27T07:45:52.584Z,1020.74
2016-09-27T07:46:33.131Z,1020.75
2016-09-27T07:47:13.666Z,1020.71
2016-09-27T07:47:54.215Z,1020.73
2016-09-27T07:48:34.757Z,1020.73
2016-09-27T07:49:15.301Z,1020.71
2016-09-27T07:49:55.852Z,1020.68
2016-09-27T07:50:36.382Z,1020.68
2016-09-27T07:51:16.931Z,1020.68
2016-09-27T07:51:57.472Z,1020.69
2016-09-27T07:52:38.018Z,1020.7
2016-09-27T07:53:18.565Z,1020.69
2016-09-27T07:53:59.107Z,1020.72
2016-09-27T07:54:39.653Z,1020.74
2016-09-27T07:55:20.207Z,1020.72
2016-09-27T07:56:00.749Z,1020.71
2016-09-27T07:56:41.297Z,1020.72
2016-09-27T07:57:21.848Z,1020.73
2016-09-27T07:58:02.390Z,1020.71
2016-09-27T07:58:42.938Z,1020.69
2016-09-27T07:59:23.478Z,1020.67
2016-09-27T08:00:04.023Z,1020.68
2016-09-27T08:00:44.563Z,1020.68
2016-09-27T08:01:25.105Z,1020.69
2016-09-27T08:02:05.654Z,1020.7
2016-09-27T08:02:46.188Z,1020.69
2016-09-27T08:03:26.728Z,1020.72
2016-09-27T08:04:07.278Z,1020.73
2016-09-27T08:04:47.831Z,1020.74
2016-09-27T08:05:28.382Z,1020.73
2016-09-27T08:06:08.934Z,1020.75
2016-09-27T08:06:49.481Z,1020.72
2016-09-27T08:07:30.033Z,1020.71
2016-09-27T08:08:10.581Z,1020.73
2016-09-27T08:08:51.139Z,1020.7
2016-09-27T08:09:31.697Z,1020.74
2016-09-27T08:10:12.238Z,1020.74
2016-09-27T08:10:52.788Z,1020.69
2016-09-27T08:11:33.338Z,1020.71
2016-09-27T08:12:13.885Z,1020.72
2016-09-27T08:12:54.438Z,1020.71
2016-09-27T08:13:34.985Z,1020.69
2016-09-27T08:14:15.522Z,1020.7